createdAt,value
2023-08-15T00:01:03.320Z,1001.5
2023-08-15T00:02:17.627Z,1001.5
2023-08-15T00:03:31.920Z,1001.5
2023-08-15T00:04:46.213Z,1001.5
2023-08-15T00:06:00.506Z,1001.5
2023-08-15T00:07:14.799Z,1001.5
2023-08-15T00:08:28.108Z,1001.5
2023-08-15T00:09:42.401Z,1001.4
2023-08-15T00:10:56.694Z,1001.4
2023-08-15T00:12:10.987Z,1001.4
2023-08-15T00:14:39.573Z,1001.4
2023-08-15T00:15:53.866Z,1001.4
2023-08-15T00:17:08.159Z,1001.4
2023-08-15T00:18:22.452Z,1001.4
2023-08-15T00:19:36.745Z,1001.4
2023-08-15T00:20:51.037Z,1001.4
2023-08-15T00:22:05.325Z,1001.4
2023-08-15T00:23:19.623Z,1001.4
2023-08-15T00:24:33.916Z,1001.4
2023-08-15T00:25:47.226Z,1001.4
2023-08-15T00:27:01.519Z,1001.4
2023-08-15T00:28:15.812Z,1001.4
2023-08-15T00:29:30.105Z,1001.3
2023-08-15T00:30:44.398Z,1001.3
2023-08-15T00:31:58.691Z,1001.3
2023-08-15T00:33:12.984Z,1001.4
2023-08-15T00:34:27.277Z,1001.4
2023-08-15T00:35:41.570Z,1001.4
2023-08-15T00:36:55.863Z,1001.4
2023-08-15T00:38:10.156Z,1001.4
2023-08-15T00:39:24.449Z,1001.4
2023-08-15T00:40:38.742Z,1001.4
2023-08-15T00:41:53.035Z,1001.4
2023-08-15T00:43:06.329Z,1001.4
2023-08-15T00:44:20.637Z,1001.4
2023-08-15T00:45:34.930Z,1001.4
2023-08-15T00:46:49.223Z,1001.4
2023-08-15T00:48:03.516Z,1001.4
2023-08-15T00:49:17.808Z,1001.3
2023-08-15T00:50:32.102Z,1001.3
2023-08-15T00:51:46.394Z,1001.3
2023-08-15T00:53:00.687Z,1001.3
2023-08-15T00:54:14.980Z,1001.3
2023-08-15T00:55:29.273Z,1001.3
2023-08-15T00:56:43.566Z,1001.3
2023-08-15T00:57:57.859Z,1001.3
2023-08-15T00:59:11.168Z,1001.3
2023-08-15T01:00:25.453Z,1001.3
2023-08-15T01:01:39.754Z,1001.3
2023-08-15T01:02:54.047Z,1001.4
2023-08-15T01:04:08.340Z,1001.3
2023-08-15T01:05:22.633Z,1001.3
2023-08-15T01:06:36.926Z,1001.3
2023-08-15T01:07:51.218Z,1001.3
2023-08-15T01:09:05.511Z,1001.3
2023-08-15T01:10:19.805Z,1001.3
2023-08-15T01:11:34.098Z,1001.3
2023-08-15T01:12:48.391Z,1001.3
2023-08-15T01:14:02.683Z,1001.3
2023-08-15T01:15:15.992Z,1001.3
2023-08-15T01:16:30.285Z,1001.3
2023-08-15T01:17:44.578Z,1001.3
2023-08-15T01:18:58.871Z,1001.3
2023-08-15T01:20:13.164Z,1001.3
2023-08-15T01:21:27.457Z,1001.3
2023-08-15T01:22:41.750Z,1001.2
2023-08-15T01:23:56.043Z,1001.2
2023-08-15T01:25:10.336Z,1001.2
2023-08-15T01:26:24.629Z,1001.2
2023-08-15T01:27:38.922Z,1001.2
2023-08-15T01:28:53.214Z,1001.2
2023-08-15T01:30:07.507Z,1001.2
2023-08-15T01:31:20.816Z,1001.2
2023-08-15T01:32:35.109Z,1001.2
2023-08-15T01:33:49.403Z,1001.2
2023-08-15T01:35:03.683Z,1001.1
2023-08-15T01:36:17.988Z,1001.1
2023-08-15T01:37:32.281Z,1001.1
2023-08-15T01:38:46.573Z,1001.1
2023-08-15T01:40:00.866Z,1001.1
2023-08-15T01:41:15.159Z,1001.1
2023-08-15T01:42:29.451Z,1001.1
2023-08-15T01:43:43.744Z,1001.1
2023-08-15T01:44:58.037Z,1001.1
2023-08-15T01:46:12.330Z,1001.1
2023-08-15T01:47:25.639Z,1001.1
2023-08-15T01:48:39.931Z,1001.1
2023-08-15T01:49:54.224Z,1001.1
2023-08-15T01:51:08.517Z,1001.1
2023-08-15T01:52:22.810Z,1001
2023-08-15T01:53:37.103Z,1001.1
2023-08-15T01:54:51.396Z,1001
2023-08-15T01:56:05.689Z,1001
2023-08-15T01:57:19.982Z,1001
2023-08-15T01:58:34.275Z,1001
2023-08-15T01:59:48.567Z,1001
2023-08-15T02:01:02.860Z,1001.1
2023-08-15T02:02:17.153Z,1001.1
2023-08-15T02:03:31.446Z,1001.1
2023-08-15T02:04:44.755Z,1001.1
2023-08-15T02:05:59.048Z,1001
2023-08-15T02:07:13.341Z,1001
2023-08-15T02:08:27.634Z,1001
2023-08-15T02:09:41.927Z,1001
2023-08-15T02:10:56.215Z,1001
2023-08-15T02:12:10.513Z,1001
2023-08-15T02:13:24.805Z,1001
2023-08-15T02:14:39.098Z,1000.9
2023-08-15T02:15:53.392Z,1000.9
2023-08-15T02:17:07.685Z,1000.9
2023-08-15T02:18:21.978Z,1000.9
2023-08-15T02:19:36.270Z,1000.9
2023-08-15T02:20:50.563Z,1000.9
2023-08-15T02:22:03.872Z,1000.9
2023-08-15T02:23:18.165Z,1000.9
2023-08-15T02:24:32.458Z,1000.9
2023-08-15T02:25:46.750Z,1000.9
2023-08-15T02:27:01.043Z,1000.9
2023-08-15T02:28:15.336Z,1000.9
2023-08-15T02:29:29.629Z,1000.8
2023-08-15T02:30:43.922Z,1000.9
2023-08-15T02:31:58.215Z,1000.8
2023-08-15T02:33:12.507Z,1000.9
2023-08-15T02:34:26.800Z,1000.8
2023-08-15T02:35:41.093Z,1000.9
2023-08-15T02:36:55.386Z,1000.9
2023-08-15T02:38:08.695Z,1000.9
2023-08-15T02:39:22.988Z,1000.9
2023-08-15T02:40:37.281Z,1000.9
2023-08-15T02:41:51.574Z,1000.9
2023-08-15T02:43:05.866Z,1000.9
2023-08-15T02:44:20.159Z,1000.9
2023-08-15T02:45:34.453Z,1000.9
2023-08-15T02:46:48.746Z,1000.9
2023-08-15T02:48:03.039Z,1000.9
2023-08-15T02:49:17.332Z,1000.8
2023-08-15T02:50:31.625Z,1000.8
2023-08-15T02:51:45.918Z,1000.8
2023-08-15T02:53:00.210Z,1000.8
2023-08-15T02:54:14.503Z,1000.8
2023-08-15T02:55:27.812Z,1000.8
2023-08-15T02:56:42.105Z,1000.8
2023-08-15T02:57:56.398Z,1000.8
2023-08-15T02:59:10.691Z,1000.8
2023-08-15T03:00:24.984Z,1000.7
2023-08-15T03:01:39.277Z,1000.7
2023-08-15T03:02:53.570Z,1000.7
2023-08-15T03:04:07.854Z,1000.7
2023-08-15T03:05:22.155Z,1000.7
2023-08-15T03:06:36.448Z,1000.7
2023-08-15T03:07:50.741Z,1000.7
2023-08-15T03:09:05.034Z,1000.7
2023-08-15T03:10:19.327Z,1000.7
2023-08-15T03:11:33.620Z,1000.7
2023-08-15T03:12:47.912Z,1000.7
2023-08-15T03:14:02.201Z,1000.7
2023-08-15T03:15:16.498Z,1000.7
2023-08-15T03:16:29.812Z,1000.7
2023-08-15T03:17:44.105Z,1000.7
2023-08-15T03:18:58.398Z,1000.7
2023-08-15T03:20:12.692Z,1000.6
2023-08-15T03:21:26.985Z,1000.6
2023-08-15T03:22:40.299Z,1000.6
2023-08-15T03:23:53.559Z,1000.7
2023-08-15T03:25:07.852Z,1000.7
2023-08-15T03:26:22.102Z,1000.7
2023-08-15T03:27:35.362Z,1000.7
2023-08-15T03:28:49.656Z,1000.7
2023-08-15T03:30:03.949Z,1000.7
2023-08-15T03:31:18.243Z,1000.7
2023-08-15T03:32:32.493Z,1000.7
2023-08-15T03:33:45.788Z,1000.7
2023-08-15T03:35:00.053Z,1000.7
2023-08-15T03:36:14.285Z,1000.7
2023-08-15T03:37:28.531Z,1000.7
2023-08-15T03:38:42.770Z,1000.7
2023-08-15T03:39:57.009Z,1000.6
2023-08-15T03:41:11.248Z,1000.6
2023-08-15T03:42:25.487Z,1000.6
2023-08-15T03:43:39.726Z,1000.6
2023-08-15T03:44:53.965Z,1000.6
2023-08-15T03:46:08.204Z,1000.6
2023-08-15T03:47:22.444Z,1000.6
2023-08-15T03:48:36.683Z,1000.6
2023-08-15T03:49:49.938Z,1000.6
2023-08-15T03:51:04.177Z,1000.6
2023-08-15T03:52:18.416Z,1000.6
2023-08-15T03:53:32.655Z,1000.6
2023-08-15T03:54:46.894Z,1000.6
2023-08-15T03:56:01.133Z,1000.6
2023-08-15T03:57:15.372Z,1000.6
2023-08-15T03:58:29.611Z,1000.6
2023-08-15T03:59:43.851Z,1000.6
2023-08-15T04:00:58.090Z,1000.6
2023-08-15T04:02:12.329Z,1000.6
2023-08-15T04:03:26.568Z,1000.7
2023-08-15T04:04:40.807Z,1000.7
2023-08-15T04:05:55.046Z,1000.7
2023-08-15T04:07:09.285Z,1000.7
2023-08-15T04:08:23.524Z,1000.7
2023-08-15T04:09:36.780Z,1000.6
2023-08-15T04:12:05.257Z,1000.7
2023-08-15T04:13:19.496Z,1000.7
2023-08-15T04:14:33.735Z,1000.7
2023-08-15T04:15:47.974Z,1000.7
2023-08-15T04:17:02.213Z,1000.7
2023-08-15T04:18:16.452Z,1000.7
2023-08-15T04:19:30.691Z,1000.7
2023-08-15T04:20:44.930Z,1000.7
2023-08-15T04:21:59.169Z,1000.7
2023-08-15T04:23:13.408Z,1000.7
2023-08-15T04:24:27.647Z,1000.7
2023-08-15T04:26:55.141Z,1000.7
2023-08-15T04:28:09.380Z,1000.7
2023-08-15T04:29:23.619Z,1000.7
2023-08-15T04:30:37.858Z,1000.7
2023-08-15T04:31:52.097Z,1000.6
2023-08-15T04:33:06.336Z,1000.6
2023-08-15T04:34:20.574Z,1000.6
2023-08-15T04:35:34.813Z,1000.6
2023-08-15T04:36:49.052Z,1000.6
2023-08-15T04:38:03.291Z,1000.6
2023-08-15T04:39:17.530Z,1000.6
2023-08-15T04:40:31.769Z,1000.6
2023-08-15T04:41:45.023Z,1000.6
2023-08-15T04:42:59.262Z,1000.6
2023-08-15T04:44:13.501Z,1000.6
2023-08-15T04:45:27.740Z,1000.5
2023-08-15T04:46:41.978Z,1000.5
2023-08-15T04:49:10.456Z,1000.6
2023-08-15T04:50:24.695Z,1000.6
2023-08-15T04:51:38.934Z,1000.6
2023-08-15T04:52:53.169Z,1000.6
2023-08-15T04:54:07.412Z,1000.6
2023-08-15T04:55:21.651Z,1000.6
2023-08-15T04:56:35.890Z,1000.6
2023-08-15T04:57:50.129Z,1000.6
2023-08-15T04:59:03.384Z,1000.6
2023-08-15T05:00:17.623Z,1000.6
2023-08-15T05:01:31.862Z,1000.5
2023-08-15T05:02:46.101Z,1000.5
2023-08-15T05:04:00.340Z,1000.5
2023-08-15T05:05:14.579Z,1000.5
2023-08-15T05:06:28.818Z,1000.5
2023-08-15T05:07:43.057Z,1000.6
2023-08-15T05:08:57.296Z,1000.6
2023-08-15T05:10:11.535Z,1000.6
2023-08-15T05:11:25.774Z,1000.6
2023-08-15T05:12:40.013Z,1000.6
2023-08-15T05:13:54.252Z,1000.6
2023-08-15T05:15:07.507Z,1000.7
2023-08-15T05:16:21.746Z,1000.7
2023-08-15T05:17:35.985Z,1000.7
2023-08-15T05:18:50.224Z,1000.7
2023-08-15T05:20:04.463Z,1000.7
2023-08-15T05:21:18.702Z,1000.7
2023-08-15T05:22:32.942Z,1000.8
2023-08-15T05:23:47.181Z,1000.8
2023-08-15T05:26:15.659Z,1000.8
2023-08-15T05:27:29.898Z,1000.8
2023-08-15T05:28:44.137Z,1000.8
2023-08-15T05:29:58.376Z,1000.8
2023-08-15T05:31:12.615Z,1000.8
2023-08-15T05:32:26.854Z,1000.8
2023-08-15T05:33:41.093Z,1000.8
2023-08-15T05:34:55.332Z,1000.8
2023-08-15T05:36:08.587Z,1000.8
2023-08-15T05:37:22.826Z,1000.8
2023-08-15T05:38:37.065Z,1000.8
2023-08-15T05:39:51.304Z,1000.8
2023-08-15T05:41:05.543Z,1000.8
2023-08-15T05:42:19.783Z,1000.8
2023-08-15T05:43:34.022Z,1000.8
2023-08-15T05:44:48.261Z,1000.8
2023-08-15T05:46:02.500Z,1000.8
2023-08-15T05:48:30.978Z,1000.9
2023-08-15T05:49:45.217Z,1000.9
2023-08-15T05:50:59.456Z,1000.9
2023-08-15T05:52:12.712Z,1000.9
2023-08-15T05:53:26.952Z,1000.8
2023-08-15T05:55:55.430Z,1000.8
2023-08-15T05:57:09.666Z,1000.8
2023-08-15T05:58:23.908Z,1000.9
2023-08-15T05:59:38.147Z,1000.9
2023-08-15T06:00:52.386Z,1000.9
2023-08-15T06:02:06.625Z,1001
2023-08-15T06:03:20.865Z,1001
2023-08-15T06:04:35.103Z,1001
2023-08-15T06:05:49.342Z,1001
2023-08-15T06:07:03.580Z,1001
2023-08-15T06:08:17.819Z,1001
2023-08-15T06:09:32.053Z,1001
2023-08-15T06:10:46.296Z,1001
2023-08-15T06:11:59.552Z,1000.9
2023-08-15T06:13:13.791Z,1000.9
2023-08-15T06:14:28.030Z,1000.9
2023-08-15T06:15:42.269Z,1000.9
2023-08-15T06:16:56.508Z,1000.9
2023-08-15T06:18:10.747Z,1000.9
2023-08-15T06:19:24.986Z,1000.9
2023-08-15T06:20:39.225Z,1000.9
2023-08-15T06:21:53.464Z,1000.9
2023-08-15T06:23:07.703Z,1000.9
2023-08-15T06:24:21.942Z,1000.9
2023-08-15T06:25:36.181Z,1000.9
2023-08-15T06:26:50.420Z,1001
2023-08-15T06:28:03.675Z,1001
2023-08-15T06:29:17.913Z,1001
2023-08-15T06:30:32.152Z,1001
2023-08-15T06:31:46.391Z,1001
2023-08-15T06:33:00.629Z,1001
2023-08-15T06:34:14.868Z,1000.9
2023-08-15T06:35:29.107Z,1000.9
2023-08-15T06:36:43.346Z,1000.9
2023-08-15T06:37:57.584Z,1000.9
2023-08-15T06:39:11.823Z,1000.9
2023-08-15T06:40:26.061Z,1000.9
2023-08-15T06:41:40.300Z,1001
2023-08-15T06:42:54.539Z,1001
2023-08-15T06:44:07.793Z,1001
2023-08-15T06:45:22.032Z,1000.9
2023-08-15T06:46:36.271Z,1000.9
2023-08-15T06:47:50.509Z,1000.9
2023-08-15T06:49:04.747Z,1000.9
2023-08-15T06:50:18.986Z,1001
2023-08-15T06:51:33.224Z,1001
2023-08-15T06:52:47.463Z,1001
2023-08-15T06:54:01.688Z,1001
2023-08-15T06:55:15.940Z,1000.9
2023-08-15T06:56:30.179Z,1001
2023-08-15T06:57:44.417Z,1001
2023-08-15T06:58:58.656Z,1001
2023-08-15T07:00:11.911Z,1001
2023-08-15T07:01:26.150Z,1001
2023-08-15T07:02:40.388Z,1001.1
2023-08-15T07:03:54.627Z,1001.1
2023-08-15T07:05:08.866Z,1001.1
2023-08-15T07:06:23.105Z,1001.1
2023-08-15T07:07:37.344Z,1001.2
2023-08-15T07:08:51.583Z,1001.2
2023-08-15T07:10:05.822Z,1001.2
2023-08-15T07:11:20.060Z,1001.1
2023-08-15T07:12:34.299Z,1001.1
2023-08-15T07:13:48.538Z,1001.1
2023-08-15T07:15:02.777Z,1001.1
2023-08-15T07:16:16.032Z,1001.1
2023-08-15T07:17:30.271Z,1001.1
2023-08-15T07:18:44.510Z,1001.1
2023-08-15T07:19:58.749Z,1001.1
2023-08-15T07:21:12.987Z,1001.1
2023-08-15T07:22:27.226Z,1001.1
2023-08-15T07:23:41.465Z,1001.1
2023-08-15T07:24:54.725Z,1001.1
2023-08-15T07:26:08.948Z,1001.1
2023-08-15T07:27:23.203Z,1001.1
2023-08-15T07:28:37.442Z,1001.2
2023-08-15T07:29:51.659Z,1001.2
2023-08-15T07:31:05.919Z,1001.3
2023-08-15T07:32:20.158Z,1001.4
2023-08-15T07:33:34.397Z,1001.4
2023-08-15T07:34:48.636Z,1001.4
2023-08-15T07:36:02.875Z,1001.4
2023-08-15T07:37:17.114Z,1001.4
2023-08-15T07:38:31.352Z,1001.4
2023-08-15T07:39:45.592Z,1001.4
2023-08-15T07:40:58.847Z,1001.4
2023-08-15T07:42:13.085Z,1001.4
2023-08-15T07:43:27.324Z,1001.4
2023-08-15T07:44:41.563Z,1001.4
2023-08-15T07:45:55.782Z,1001.4
2023-08-15T07:47:10.041Z,1001.4
2023-08-15T07:48:24.279Z,1001.5
2023-08-15T07:49:38.518Z,1001.5
2023-08-15T07:50:52.757Z,1001.5
2023-08-15T07:52:06.996Z,1001.6
2023-08-15T07:53:21.223Z,1001.6
2023-08-15T07:54:35.474Z,1001.6
2023-08-15T07:55:49.713Z,1001.6
2023-08-15T07:57:02.968Z,1001.6
2023-08-15T07:58:17.206Z,1001.6
2023-08-15T07:59:31.445Z,1001.6
2023-08-15T08:00:45.684Z,1001.6
2023-08-15T08:01:59.923Z,1001.7
2023-08-15T08:03:14.162Z,1001.7
2023-08-15T08:04:28.401Z,1001.7
2023-08-15T08:05:42.640Z,1001.8
2023-08-15T08:06:56.879Z,1001.8
2023-08-15T08:08:11.118Z,1001.7
2023-08-15T08:09:25.357Z,1001.7
2023-08-15T08:10:39.597Z,1001.8
2023-08-15T08:11:53.836Z,1001.8
2023-08-15T08:13:07.091Z,1001.8
2023-08-15T08:14:21.331Z,1001.8
2023-08-15T08:15:35.570Z,1001.8
2023-08-15T08:16:49.809Z,1001.8
2023-08-15T08:18:04.048Z,1001.7
2023-08-15T08:19:18.287Z,1001.8
2023-08-15T08:20:32.526Z,1001.8
2023-08-15T08:21:46.765Z,1001.8
2023-08-15T08:23:01.005Z,1001.8
2023-08-15T08:24:15.244Z,1001.8
2023-08-15T08:25:29.483Z,1001.7
2023-08-15T08:26:43.722Z,1001.7
2023-08-15T08:27:57.961Z,1001.7
2023-08-15T08:29:11.216Z,1001.6
2023-08-15T08:30:25.455Z,1001.6
2023-08-15T08:31:39.694Z,1001.6
2023-08-15T08:32:53.933Z,1001.6
2023-08-15T08:34:08.172Z,1001.7
2023-08-15T08:35:22.412Z,1001.7
2023-08-15T08:36:36.651Z,1001.7
2023-08-15T08:37:50.889Z,1001.8
2023-08-15T08:39:05.128Z,1001.7
2023-08-15T08:40:19.367Z,1001.8
2023-08-15T08:41:33.605Z,1001.7
2023-08-15T08:42:47.844Z,1001.7
2023-08-15T08:44:02.083Z,1001.7
2023-08-15T08:45:15.338Z,1001.7
2023-08-15T08:46:29.576Z,1001.7
2023-08-15T08:47:43.815Z,1001.7
2023-08-15T08:48:58.054Z,1001.7
2023-08-15T08:50:12.292Z,1001.8
2023-08-15T08:51:26.531Z,1001.8
2023-08-15T08:52:40.746Z,1001.8
2023-08-15T08:53:55.009Z,1001.8
2023-08-15T08:55:09.231Z,1001.9
2023-08-15T08:56:23.487Z,1001.8
2023-08-15T08:57:37.726Z,1001.9
2023-08-15T08:58:51.965Z,1001.9
2023-08-15T09:00:06.204Z,1001.9
2023-08-15T09:01:19.459Z,1001.9
2023-08-15T09:02:33.698Z,1001.9
2023-08-15T09:03:47.927Z,1001.9
2023-08-15T09:05:02.177Z,1001.9
2023-08-15T09:06:16.416Z,1001.9
2023-08-15T09:07:30.655Z,1001.9
2023-08-15T09:08:44.894Z,1001.9
2023-08-15T09:09:59.133Z,1001.9
2023-08-15T09:11:13.372Z,1001.9
2023-08-15T09:12:27.611Z,1001.9
2023-08-15T09:13:41.825Z,1002
2023-08-15T09:14:55.110Z,1002
2023-08-15T09:16:08.365Z,1001.9
2023-08-15T09:17:22.604Z,1001.9
2023-08-15T09:18:36.844Z,1001.9
2023-08-15T09:19:51.083Z,1001.9
2023-08-15T09:21:05.322Z,1001.9
2023-08-15T09:22:19.560Z,1001.9
2023-08-15T09:23:33.799Z,1001.9
2023-08-15T09:24:48.038Z,1001.8
2023-08-15T09:26:02.277Z,1001.8
2023-08-15T09:27:16.516Z,1001.8
2023-08-15T09:28:30.755Z,1001.8
2023-08-15T09:29:44.994Z,1001.8
2023-08-15T09:30:59.233Z,1001.8
2023-08-15T09:32:12.463Z,1001.8
2023-08-15T09:33:26.727Z,1001.8
2023-08-15T09:34:40.966Z,1001.7
2023-08-15T09:35:55.205Z,1001.7
2023-08-15T09:37:09.443Z,1001.7
2023-08-15T09:38:23.682Z,1001.7
2023-08-15T09:39:37.922Z,1001.7
2023-08-15T09:40:52.161Z,1001.8
2023-08-15T09:42:06.400Z,1001.8
2023-08-15T09:43:20.639Z,1001.8
2023-08-15T09:44:34.877Z,1001.7
2023-08-15T09:45:49.116Z,1001.7
2023-08-15T09:47:03.355Z,1001.7
2023-08-15T09:48:16.610Z,1001.7
2023-08-15T09:49:30.849Z,1001.7
2023-08-15T09:50:45.089Z,1001.7
2023-08-15T09:51:59.328Z,1001.6
2023-08-15T09:53:13.567Z,1001.6
2023-08-15T09:54:27.806Z,1001.6
2023-08-15T09:55:42.045Z,1001.6
2023-08-15T09:56:56.284Z,1001.6
2023-08-15T09:58:10.523Z,1001.7
2023-08-15T09:59:24.762Z,1001.7
2023-08-15T10:00:39.001Z,1001.6
2023-08-15T10:01:53.240Z,1001.6
2023-08-15T10:03:07.480Z,1001.6
2023-08-15T10:04:20.735Z,1001.6
2023-08-15T10:05:34.974Z,1001.6
2023-08-15T10:06:49.213Z,1001.5
2023-08-15T10:08:03.452Z,1001.5
2023-08-15T10:09:17.691Z,1001.4
2023-08-15T10:10:31.930Z,1001.4
2023-08-15T10:11:46.143Z,1001.4
2023-08-15T10:13:00.409Z,1001.5
2023-08-15T10:14:14.627Z,1001.5
2023-08-15T10:15:28.887Z,1001.5
2023-08-15T10:16:43.126Z,1001.5
2023-08-15T10:17:57.365Z,1001.5
2023-08-15T10:19:11.604Z,1001.5
2023-08-15T10:20:24.859Z,1001.6
2023-08-15T10:21:39.098Z,1001.5
2023-08-15T10:22:53.337Z,1001.5
2023-08-15T10:24:07.576Z,1001.6
2023-08-15T10:25:21.815Z,1001.6
2023-08-15T10:26:36.054Z,1001.6
2023-08-15T10:27:50.294Z,1001.6
2023-08-15T10:29:04.533Z,1001.6
2023-08-15T10:30:18.772Z,1001.6
2023-08-15T10:31:33.011Z,1001.7
2023-08-15T10:32:47.250Z,1001.7
2023-08-15T10:34:01.489Z,1001.6
2023-08-15T10:35:15.728Z,1001.6
2023-08-15T10:36:28.983Z,1001.6
2023-08-15T10:37:43.222Z,1001.5
2023-08-15T10:38:57.461Z,1001.5
2023-08-15T10:40:11.700Z,1001.5
2023-08-15T10:41:25.939Z,1001.5
2023-08-15T10:42:40.178Z,1001.5
2023-08-15T10:43:54.401Z,1001.5
2023-08-15T10:45:08.657Z,1001.6
2023-08-15T10:46:22.896Z,1001.6
2023-08-15T10:47:37.135Z,1001.6
2023-08-15T10:48:50.406Z,1001.6
2023-08-15T10:50:04.645Z,1001.5
2023-08-15T10:51:17.905Z,1001.5
2023-08-15T10:52:31.161Z,1001.6
2023-08-15T10:53:45.400Z,1001.6
2023-08-15T10:54:59.639Z,1001.6
2023-08-15T10:56:13.878Z,1001.6
2023-08-15T10:57:28.117Z,1001.6
2023-08-15T10:58:42.357Z,1001.6
2023-08-15T10:59:56.596Z,1001.6
2023-08-15T11:01:10.835Z,1001.6
2023-08-15T11:02:25.075Z,1001.6
2023-08-15T11:03:39.314Z,1001.6
2023-08-15T11:04:53.553Z,1001.6
2023-08-15T11:06:07.792Z,1001.6
2023-08-15T11:07:22.032Z,1001.6
2023-08-15T11:08:35.287Z,1001.5
2023-08-15T11:09:49.527Z,1001.5
2023-08-15T11:11:03.766Z,1001.5
2023-08-15T11:12:18.006Z,1001.5
2023-08-15T11:13:32.245Z,1001.6
2023-08-15T11:14:46.485Z,1001.6
2023-08-15T11:16:00.725Z,1001.6
2023-08-15T11:17:14.964Z,1001.6
2023-08-15T11:18:28.225Z,1001.6
2023-08-15T11:19:41.481Z,1001.6
2023-08-15T11:20:55.721Z,1001.5
2023-08-15T11:22:09.961Z,1001.5
2023-08-15T11:23:24.200Z,1001.5
2023-08-15T11:24:38.440Z,1001.5
2023-08-15T11:25:52.679Z,1001.5
2023-08-15T11:27:06.918Z,1001.5
2023-08-15T11:28:21.133Z,1001.6
2023-08-15T11:29:35.397Z,1001.6
2023-08-15T11:30:49.637Z,1001.6
2023-08-15T11:32:03.876Z,1001.6
2023-08-15T11:33:17.136Z,1001.6
2023-08-15T11:34:31.376Z,1001.6
2023-08-15T11:35:45.615Z,1001.6
2023-08-15T11:36:59.855Z,1001.6
2023-08-15T11:38:14.094Z,1001.6
2023-08-15T11:39:28.334Z,1001.6
2023-08-15T11:40:42.573Z,1001.6
2023-08-15T11:41:56.813Z,1001.6
2023-08-15T11:43:10.073Z,1001.6
2023-08-15T11:44:23.329Z,1001.6
2023-08-15T11:45:37.568Z,1001.6
2023-08-15T11:46:51.808Z,1001.6
2023-08-15T11:48:06.047Z,1001.6
2023-08-15T11:49:20.287Z,1001.6
2023-08-15T11:50:34.527Z,1001.6
2023-08-15T11:51:48.766Z,1001.6
2023-08-15T11:53:03.006Z,1001.6
2023-08-15T11:54:17.246Z,1001.6
2023-08-15T11:55:31.486Z,1001.6
2023-08-15T11:56:45.725Z,1001.6
2023-08-15T11:57:59.965Z,1001.6
2023-08-15T11:59:14.205Z,1001.5
2023-08-15T12:00:27.461Z,1001.5
2023-08-15T12:01:41.700Z,1001.5
2023-08-15T12:02:55.940Z,1001.5
2023-08-15T12:04:10.179Z,1001.5
2023-08-15T12:05:24.419Z,1001.6
2023-08-15T12:06:38.659Z,1001.5
2023-08-15T12:07:51.920Z,1001.5
2023-08-15T12:09:05.181Z,1001.5
2023-08-15T12:10:18.437Z,1001.5
2023-08-15T12:11:32.677Z,1001.5
2023-08-15T12:12:46.917Z,1001.5
2023-08-15T12:14:01.156Z,1001.5
2023-08-15T12:15:15.396Z,1001.5
2023-08-15T12:16:29.614Z,1001.5
2023-08-15T12:17:43.876Z,1001.5
2023-08-15T12:18:58.116Z,1001.5
2023-08-15T12:20:12.356Z,1001.5
2023-08-15T12:21:26.596Z,1001.5
2023-08-15T12:22:40.836Z,1001.4
2023-08-15T12:23:55.076Z,1001.4
2023-08-15T12:25:09.315Z,1001.4
2023-08-15T12:26:22.571Z,1001.4
2023-08-15T12:27:36.811Z,1001.4
2023-08-15T12:28:51.051Z,1001.3
2023-08-15T12:30:05.291Z,1001.3
2023-08-15T12:31:19.531Z,1001.3
2023-08-15T12:32:33.770Z,1001.3
2023-08-15T12:33:47.031Z,1001.3
2023-08-15T12:35:00.287Z,1001.3
2023-08-15T12:36:14.526Z,1001.3
2023-08-15T12:37:28.766Z,1001.3
2023-08-15T12:38:43.006Z,1001.3
2023-08-15T12:39:57.245Z,1001.3
2023-08-15T12:41:11.485Z,1001.3
2023-08-15T12:42:25.725Z,1001.3
2023-08-15T12:43:39.964Z,1001.3
2023-08-15T12:44:54.204Z,1001.2
2023-08-15T12:46:08.443Z,1001.2
2023-08-15T12:47:22.683Z,1001.2
2023-08-15T12:48:36.923Z,1001.2
2023-08-15T12:49:51.162Z,1001.2
2023-08-15T12:51:04.418Z,1001.2
2023-08-15T12:52:18.657Z,1001.2
2023-08-15T12:53:32.897Z,1001.2
2023-08-15T12:54:47.137Z,1001.2
2023-08-15T12:56:01.376Z,1001.2
2023-08-15T12:57:15.616Z,1001.2
2023-08-15T12:58:28.876Z,1001.1
2023-08-15T12:59:42.108Z,1001.1
2023-08-15T13:00:56.371Z,1001.1
2023-08-15T13:02:10.611Z,1001.1
2023-08-15T13:03:24.850Z,1001.1
2023-08-15T13:04:39.077Z,1001.1
2023-08-15T13:05:53.330Z,1001
2023-08-15T13:07:07.569Z,1001
2023-08-15T13:08:21.808Z,1001
2023-08-15T13:09:36.048Z,1001
2023-08-15T13:10:50.287Z,1001
2023-08-15T13:12:04.508Z,1001
2023-08-15T13:13:18.767Z,1001
2023-08-15T13:14:33.007Z,1001
2023-08-15T13:15:46.262Z,1001
2023-08-15T13:17:00.502Z,1001
2023-08-15T13:18:14.741Z,1001
2023-08-15T13:19:28.981Z,1001
2023-08-15T13:20:43.220Z,1001
2023-08-15T13:21:57.460Z,1001
2023-08-15T13:23:10.720Z,1001.1
2023-08-15T13:24:23.976Z,1001.1
2023-08-15T13:25:38.215Z,1001.1
2023-08-15T13:26:52.455Z,1001.1
2023-08-15T13:28:06.694Z,1001.1
2023-08-15T13:29:20.934Z,1001.2
2023-08-15T13:30:35.174Z,1001.1
2023-08-15T13:31:49.413Z,1001.1
2023-08-15T13:33:03.653Z,1001.1
2023-08-15T13:34:17.892Z,1001.1
2023-08-15T13:35:32.131Z,1001.1
2023-08-15T13:36:46.371Z,1001
2023-08-15T13:38:00.610Z,1001
2023-08-15T13:39:14.850Z,1001
2023-08-15T13:40:28.105Z,1001.1
2023-08-15T13:41:42.338Z,1001.1
2023-08-15T13:42:56.562Z,1001.2
2023-08-15T13:44:10.823Z,1001.3
2023-08-15T13:45:25.063Z,1001.3
2023-08-15T13:46:39.302Z,1001.3
2023-08-15T13:47:52.563Z,1001.3
2023-08-15T13:49:05.818Z,1001.2
2023-08-15T13:50:20.057Z,1001.2
2023-08-15T13:51:34.296Z,1001.2
2023-08-15T13:52:48.537Z,1001.1
2023-08-15T13:54:02.776Z,1001.1
2023-08-15T13:55:17.015Z,1001.1
2023-08-15T13:56:31.254Z,1001.1
2023-08-15T13:57:45.494Z,1001.1
2023-08-15T13:58:59.733Z,1001.1
2023-08-15T14:00:13.972Z,1001.1
2023-08-15T14:01:28.211Z,1001
2023-08-15T14:02:42.451Z,1001
2023-08-15T14:03:56.678Z,1000.9
2023-08-15T14:05:09.945Z,1000.9
2023-08-15T14:06:24.184Z,1000.9
2023-08-15T14:07:38.423Z,1000.9
2023-08-15T14:08:52.662Z,1000.9
2023-08-15T14:10:06.901Z,1000.9
2023-08-15T14:11:21.140Z,1001
2023-08-15T14:12:35.380Z,1001
2023-08-15T14:13:49.619Z,1001
2023-08-15T14:15:03.858Z,1001
2023-08-15T14:16:18.097Z,1000.9
2023-08-15T14:17:32.336Z,1000.9
2023-08-15T14:18:46.575Z,1000.9
2023-08-15T14:20:00.807Z,1000.8
2023-08-15T14:21:14.069Z,1000.8
2023-08-15T14:22:28.308Z,1000.8
2023-08-15T14:23:42.547Z,1000.9
2023-08-15T14:24:56.787Z,1000.9
2023-08-15T14:26:11.026Z,1001
2023-08-15T14:27:25.266Z,1001
2023-08-15T14:28:39.505Z,1001.1
2023-08-15T14:29:53.744Z,1001.1
2023-08-15T14:31:07.983Z,1001.1
2023-08-15T14:32:22.222Z,1001.1
2023-08-15T14:33:36.447Z,1001.1
2023-08-15T14:34:50.700Z,1001.2
2023-08-15T14:36:04.939Z,1001.2
2023-08-15T14:37:18.194Z,1001.2
2023-08-15T14:38:32.433Z,1001.2
2023-08-15T14:39:46.672Z,1001.2
2023-08-15T14:41:00.911Z,1001.2
2023-08-15T14:42:15.150Z,1001.2
2023-08-15T14:43:29.389Z,1001.1
2023-08-15T14:44:43.628Z,1001.1
2023-08-15T14:45:57.868Z,1001.1
2023-08-15T14:47:12.106Z,1001.1
2023-08-15T14:48:26.345Z,1001.1
2023-08-15T14:49:40.584Z,1001.1
2023-08-15T14:50:54.823Z,1001.1
2023-08-15T14:52:09.062Z,1001.1
2023-08-15T14:53:22.317Z,1001.2
2023-08-15T14:54:36.556Z,1001.2
2023-08-15T14:55:50.772Z,1001.2
2023-08-15T14:57:05.034Z,1001.2
2023-08-15T14:58:19.273Z,1001.3
2023-08-15T14:59:33.512Z,1001.3
2023-08-15T15:00:47.751Z,1001.3
2023-08-15T15:02:01.990Z,1001.3
2023-08-15T15:03:16.229Z,1001.3
2023-08-15T15:04:30.468Z,1001.4
2023-08-15T15:05:44.707Z,1001.4
2023-08-15T15:06:58.946Z,1001.4
2023-08-15T15:08:13.185Z,1001.4
2023-08-15T15:09:26.433Z,1001.4
2023-08-15T15:10:40.673Z,1001.4
2023-08-15T15:11:54.918Z,1001.3
2023-08-15T15:13:09.157Z,1001.3
2023-08-15T15:14:23.396Z,1001.3
2023-08-15T15:15:37.635Z,1001.4
2023-08-15T15:16:51.874Z,1001.4
2023-08-15T15:18:06.113Z,1001.5
2023-08-15T15:19:20.352Z,1001.5
2023-08-15T15:20:34.590Z,1001.6
2023-08-15T15:21:48.829Z,1001.7
2023-08-15T15:23:03.068Z,1001.8
2023-08-15T15:24:17.306Z,1001.9
2023-08-15T15:25:30.556Z,1002
2023-08-15T15:26:44.799Z,1002
2023-08-15T15:27:59.038Z,1002.1
2023-08-15T15:29:13.277Z,1002.2
2023-08-15T15:30:27.516Z,1002.2
2023-08-15T15:31:41.755Z,1002.3
2023-08-15T15:32:55.981Z,1002.3
2023-08-15T15:34:10.232Z,1002.3
2023-08-15T15:35:24.461Z,1002.3
2023-08-15T15:36:38.694Z,1002.3
2023-08-15T15:37:52.950Z,1002.4
2023-08-15T15:39:07.172Z,1002.4